ADDS METAR Data INFO
IDs: Format: Raw Decoded Include TAF

Data at: 0141 UTC 18 Oct 2017

KRKS 180054Z AUTO 20006KT 10SM CLR 13/M14 A3018 RMK AO2 SLP184 T01331139
KRKS 172354Z AUTO 22007KT 10SM CLR 16/M14 A3018 RMK AO2 SLP176 T01561139 10189 20144 58015
KRKS 172254Z AUTO 24006KT 10SM CLR 17/M16 A3020 RMK AO2 SLP179 T01721156
KRKS 172154Z AUTO 26012KT 10SM CLR 18/M17 A3022 RMK AO2 SLP180 T01831167
KRKS 172054Z AUTO 25013G18KT 10SM CLR 18/M18 A3023 RMK AO2 SLP185 T01831183 56027
KRKS 171954Z AUTO 25012KT 10SM CLR 18/M16 A3026 RMK AO2 SLP194 T01781161
KRKS 171854Z AUTO 27011KT 10SM CLR 17/M18 A3030 RMK AO2 SLP210 T01671183
KRKS 171754Z AUTO 26007KT 10SM CLR 14/M17 A3033 RMK AO2 SLP224 T01441167 10144 20017 58012
KRKS 171654Z AUTO 27007KT 10SM CLR 12/M16 A3035 RMK AO2 SLP240 T01171161
KRKS 171554Z AUTO 25007KT 10SM CLR 09/M16 A3037 RMK AO2 SLP246 T00941156
KRKS 171454Z AUTO 27005KT 10SM CLR 07/M16 A3037 RMK AO2 SLP256 T00721156 53002
KRKS 171354Z AUTO 27008KT 10SM CLR 03/M16 A3037 RMK AO2 SLP257 T00281161
KRKS 171254Z AUTO 25010KT 10SM CLR 03/M16 A3036 RMK AO2 SLP253 T00331161
KRKS 171154Z AUTO 27008KT 10SM CLR 04/M16 A3036 RMK AO2 SLP241 T00391161 10072 20033 55001
KRKS 171054Z AUTO 26012KT 10SM CLR 04/M16 A3036 RMK AO2 SLP235 T00441161
KRKS 170954Z AUTO 26009KT 10SM CLR 06/M17 A3036 RMK AO2 SLP232 T00561167
KRKS 170854Z AUTO 23011KT 10SM CLR 06/M17 A3037 RMK AO2 SLP235 T00611167 56002
KRKS 170754Z AUTO 25013KT 10SM CLR 07/M17 A3037 RMK AO2 SLP236 T00671167
KRKS 170654Z AUTO 25013KT 10SM CLR 07/M16 A3037 RMK AO2 SLP238 T00671156 401831022
KRKS 170554Z AUTO 25014KT 10SM CLR 07/M14 A3038 RMK AO2 SLP242 T00721139 10156 20061 50005
KRKS 170454Z AUTO 21008KT 10SM CLR 07/M14 A3038 RMK AO2 SLP254 T00671139
KRKS 170354Z AUTO 23005KT 10SM CLR 09/M14 A3037 RMK AO2 SLP259 T00891139
KRKS 170254Z AUTO 26008KT 10SM CLR 08/M14 A3036 RMK AO2 SLP260 T00781139 53003
KRKS 170154Z AUTO 27009KT 10SM CLR 12/M16 A3035 RMK AO2 SLP258 T01171156
KRKS 170054Z AUTO 28011KT 10SM CLR 12/M17 A3035 RMK AO2 SLP256 T01221167
KRKS 162354Z AUTO 29009KT 10SM CLR 16/M18 A3035 RMK AO2 SLP253 T01561178 10183 20133 55005
KRKS 162254Z AUTO 27011KT 10SM CLR 17/M18 A3035 RMK AO2 SLP237 T01721178
KRKS 162154Z AUTO 27016KT 10SM CLR 18/M19 A3036 RMK AO2 SLP239 T01781189
KRKS 162054Z AUTO 28015G22KT 10SM CLR 17/M19 A3036 RMK AO2 SLP241 T01721189 56018
KRKS 161954Z AUTO 26015KT 10SM CLR 16/M18 A3038 RMK AO2 SLP246 T01611183
KRKS 161854Z AUTO 25013G20KT 10SM CLR 15/M17 A3041 RMK AO2 SLP254 T01501172
KRKS 161754Z AUTO 25012KT 10SM CLR 13/M16 A3043 RMK AO2 SLP266 T01331156 10133 21017 58002
KRKS 161654Z AUTO 25005KT 10SM CLR 10/M12 A3044 RMK AO2 SLP281 T01001117
KRKS 161554Z AUTO 06003KT 10SM CLR 06/M09 A3045 RMK AO2 SLP294 T00561094
KRKS 161454Z AUTO 22003KT 10SM CLR 04/M11 A3043 RMK AO2 SLP296 T00391106 53005
KRKS 161354Z AUTO 00000KT 10SM CLR 01/M11 A3042 RMK AO2 SLP298 T00061111